createdAt,value
2023-04-18T00:00:08.981Z,8.90
2023-04-18T00:02:38.912Z,8.80
2023-04-18T00:05:31.482Z,8.80
2023-04-18T00:07:59.934Z,8.80
2023-04-18T00:10:26.946Z,8.70
2023-04-18T00:12:53.813Z,8.70
2023-04-18T00:15:20.885Z,8.70
2023-04-18T00:17:48.032Z,8.70
2023-04-18T00:20:15.199Z,8.60
2023-04-18T00:22:42.536Z,8.50
2023-04-18T00:25:11.369Z,8.50
2023-04-18T00:27:38.972Z,8.50
2023-04-18T00:30:08.158Z,8.40
2023-04-18T00:32:37.970Z,8.40
2023-04-18T00:35:06.394Z,8.40
2023-04-18T00:37:33.375Z,8.40
2023-04-18T00:40:00.420Z,8.30
2023-04-18T00:42:28.979Z,8.30
2023-04-18T00:44:56.222Z,8.30
2023-04-18T00:47:23.805Z,8.30
2023-04-18T00:49:51.638Z,8.20
2023-04-18T00:52:19.706Z,8.20
2023-04-18T00:54:47.753Z,8.20
2023-04-18T00:57:15.041Z,8.10
2023-04-18T00:59:43.856Z,8.10
2023-04-18T01:02:11.128Z,8.10
2023-04-18T01:04:38.218Z,8.10
2023-04-18T01:07:05.647Z,8.00
2023-04-18T01:09:32.896Z,8.00
2023-04-18T01:12:04.950Z,8.00
2023-04-18T01:14:33.837Z,7.90
2023-04-18T01:17:04.824Z,7.90
2023-04-18T01:19:31.915Z,7.90
2023-04-18T01:22:07.975Z,7.90
2023-04-18T01:24:41.558Z,7.90
2023-04-18T01:27:11.668Z,7.80
2023-04-18T01:29:39.120Z,7.80
2023-04-18T01:32:07.545Z,7.80
2023-04-18T01:34:34.705Z,7.70
2023-04-18T01:37:01.854Z,7.70
2023-04-18T01:39:31.214Z,7.70
2023-04-18T01:42:00.196Z,7.60
2023-04-18T01:44:27.968Z,7.60
2023-04-18T01:46:55.201Z,7.60
2023-04-18T01:49:24.432Z,7.60
2023-04-18T01:51:51.377Z,7.60
2023-04-18T01:54:18.239Z,7.50
2023-04-18T01:56:45.355Z,7.50
2023-04-18T01:59:13.893Z,7.50
2023-04-18T02:01:46.672Z,7.50
2023-04-18T02:04:19.102Z,7.40
2023-04-18T02:06:51.442Z,7.40
2023-04-18T02:09:28.605Z,7.40
2023-04-18T02:12:01.838Z,7.40
2023-04-18T02:14:38.074Z,7.30
2023-04-18T02:17:12.102Z,7.30
2023-04-18T02:19:42.903Z,7.30
2023-04-18T02:22:10.286Z,7.30
2023-04-18T02:24:47.520Z,7.30
2023-04-18T02:27:16.050Z,7.30
2023-04-18T02:29:54.270Z,7.30
2023-04-18T02:32:24.291Z,7.20
2023-04-18T02:35:01.841Z,7.20
2023-04-18T02:37:29.016Z,7.20
2023-04-18T02:39:57.108Z,7.20
2023-04-18T02:42:30.421Z,7.20
2023-04-18T02:45:05.443Z,7.10
2023-04-18T02:47:47.083Z,7.10
2023-04-18T02:50:23.806Z,7.10
2023-04-18T02:52:52.470Z,7.10
2023-04-18T02:55:23.936Z,7.10
2023-04-18T02:57:52.180Z,7.10
2023-04-18T03:00:38.739Z,7.00
2023-04-18T03:03:22.604Z,7.00
2023-04-18T03:06:01.278Z,7.00
2023-04-18T03:08:30.929Z,7.00
2023-04-18T03:11:08.192Z,7.00
2023-04-18T03:13:40.921Z,6.90
2023-04-18T03:16:16.252Z,6.90
2023-04-18T03:18:44.172Z,6.90
2023-04-18T03:21:13.803Z,6.90
2023-04-18T03:23:41.535Z,6.90
2023-04-18T03:26:09.001Z,6.90
2023-04-18T03:28:38.868Z,6.90
2023-04-18T03:31:06.615Z,6.80
2023-04-18T03:33:40.505Z,6.80
2023-04-18T03:36:10.888Z,6.80
2023-04-18T03:38:38.863Z,6.80
2023-04-18T03:41:12.089Z,6.80
2023-04-18T03:43:42.054Z,6.70
2023-04-18T03:46:10.875Z,6.70
2023-04-18T03:48:40.835Z,6.80
2023-04-18T03:51:11.011Z,6.70
2023-04-18T03:53:39.078Z,6.70
2023-04-18T03:56:10.302Z,6.70
2023-04-18T03:58:56.771Z,6.70
2023-04-18T04:01:28.496Z,6.70
2023-04-18T04:03:56.951Z,6.70
2023-04-18T04:06:26.758Z,6.70
2023-04-18T04:08:55.344Z,6.70
2023-04-18T04:11:26.362Z,6.70
2023-04-18T04:13:54.531Z,6.70
2023-04-18T04:16:27.859Z,6.70
2023-04-18T04:18:57.571Z,6.70
2023-04-18T04:21:35.864Z,6.70
2023-04-18T04:24:07.321Z,6.70
2023-04-18T04:26:41.874Z,6.70
2023-04-18T04:29:21.581Z,6.70
2023-04-18T04:31:49.093Z,6.70
2023-04-18T04:34:29.306Z,6.70
2023-04-18T04:36:58.647Z,6.70
2023-04-18T04:39:26.966Z,6.80
2023-04-18T04:42:14.308Z,6.70
2023-04-18T04:44:53.952Z,6.80
2023-04-18T04:47:21.915Z,6.80
2023-04-18T04:49:50.890Z,6.80
2023-04-18T04:52:17.780Z,6.80
2023-04-18T04:54:44.894Z,6.90
2023-04-18T04:57:13.835Z,6.90
2023-04-18T04:59:41.137Z,6.90
2023-04-18T05:02:08.245Z,7.00
2023-04-18T05:04:36.286Z,7.00
2023-04-18T05:07:05.813Z,7.00
2023-04-18T05:09:32.879Z,7.00
2023-04-18T05:11:59.797Z,7.10
2023-04-18T05:14:26.873Z,7.10
2023-04-18T05:16:55.073Z,7.10
2023-04-18T05:19:22.740Z,7.20
2023-04-18T05:21:49.756Z,7.20
2023-04-18T05:24:18.683Z,7.20
2023-04-18T05:26:45.667Z,7.20
2023-04-18T05:29:12.685Z,7.30
2023-04-18T05:31:39.951Z,7.30
2023-04-18T05:34:06.887Z,7.40
2023-04-18T05:36:33.774Z,7.40
2023-04-18T05:39:01.027Z,7.50
2023-04-18T05:41:29.285Z,7.50
2023-04-18T05:44:04.784Z,7.60
2023-04-18T05:46:32.974Z,7.60
2023-04-18T05:49:01.202Z,7.70
2023-04-18T05:51:28.204Z,7.90
2023-04-18T05:53:55.338Z,8.10
2023-04-18T05:56:22.388Z,8.30
2023-04-18T05:58:50.729Z,8.50
2023-04-18T06:01:18.149Z,8.70
2023-04-18T06:03:45.236Z,8.90
2023-04-18T06:06:13.130Z,9.10
2023-04-18T06:08:40.315Z,9.30
2023-04-18T06:11:07.398Z,9.50
2023-04-18T06:13:34.487Z,9.60
2023-04-18T06:16:03.175Z,9.70
2023-04-18T06:18:30.141Z,9.80
2023-04-18T06:20:57.161Z,9.90
2023-04-18T06:23:24.410Z,10.00
2023-04-18T06:25:52.007Z,10.10
2023-04-18T06:28:18.853Z,10.10
2023-04-18T06:31:12.750Z,10.20
2023-04-18T06:33:39.637Z,10.30
2023-04-18T06:36:07.885Z,10.40
2023-04-18T06:38:34.796Z,10.50
2023-04-18T06:41:01.764Z,10.60
2023-04-18T06:44:03.439Z,10.60
2023-04-18T06:46:33.076Z,10.80
2023-04-18T06:49:00.216Z,10.90
2023-04-18T06:51:27.355Z,11.10
2023-04-18T06:56:54.804Z,11.40
2023-04-18T07:05:17.418Z,11.90
2023-04-18T07:07:45.101Z,12.10
2023-04-18T07:10:12.826Z,12.30
2023-04-18T07:12:40.047Z,12.50
2023-04-18T07:15:08.709Z,12.60
2023-04-18T07:17:35.781Z,12.80
2023-04-18T07:20:02.983Z,12.90
2023-04-18T07:22:31.342Z,13.00
2023-04-18T07:24:58.542Z,13.10
2023-04-18T07:27:25.943Z,13.20
2023-04-18T07:29:52.880Z,13.30
2023-04-18T07:32:20.380Z,13.30
2023-04-18T07:34:47.368Z,13.40
2023-04-18T07:37:15.063Z,13.50
2023-04-18T07:39:43.687Z,13.70
2023-04-18T07:42:10.689Z,13.70
2023-04-18T07:44:37.742Z,13.80
2023-04-18T07:47:07.692Z,13.90
2023-04-18T07:49:35.076Z,13.90
2023-04-18T07:52:02.402Z,13.90
2023-04-18T07:54:29.364Z,14.00
2023-04-18T07:56:59.450Z,14.20
2023-04-18T07:59:26.795Z,14.30
2023-04-18T08:01:54.067Z,14.40
2023-04-18T08:04:21.160Z,14.50
2023-04-18T08:06:48.514Z,14.70
2023-04-18T08:09:15.754Z,14.90
2023-04-18T08:11:46.078Z,15.00
2023-04-18T08:14:14.404Z,15.10
2023-04-18T08:16:41.457Z,15.30
2023-04-18T08:19:08.588Z,15.50
2023-04-18T08:21:40.139Z,15.80
2023-04-18T08:24:07.889Z,16.00
2023-04-18T08:26:36.771Z,16.20
2023-04-18T08:29:04.320Z,16.10
2023-04-18T08:31:46.679Z,16.10
2023-04-18T08:38:17.174Z,16.00
2023-04-18T08:41:11.525Z,16.00
2023-04-18T08:43:38.611Z,16.10
2023-04-18T08:46:05.803Z,16.30
2023-04-18T08:48:35.402Z,16.30
2023-04-18T08:51:02.430Z,16.40
2023-04-18T08:53:29.693Z,16.40
2023-04-18T08:55:57.510Z,16.90
2023-04-18T08:58:24.794Z,17.40
2023-04-18T09:00:52.410Z,17.40
2023-04-18T09:16:46.604Z,18.40
2023-04-18T09:19:16.260Z,18.80
2023-04-18T09:21:44.676Z,19.50
2023-04-18T09:24:20.926Z,20.10
2023-04-18T09:26:48.654Z,19.50
2023-04-18T09:29:16.284Z,19.40
2023-04-18T09:31:59.331Z,19.30
2023-04-18T09:34:26.626Z,19.90
2023-04-18T09:37:08.938Z,19.80
2023-04-18T09:39:37.587Z,19.90
2023-04-18T09:42:05.100Z,19.70
2023-04-18T09:44:32.532Z,19.90
2023-04-18T09:47:02.357Z,20.40
2023-04-18T09:49:33.579Z,20.00
2023-04-18T09:52:06.413Z,19.50
2023-04-18T09:54:39.153Z,19.30
2023-04-18T09:57:11.041Z,19.10
2023-04-18T09:59:47.713Z,18.80
2023-04-18T10:05:14.902Z,17.80
2023-04-18T10:07:44.303Z,17.50
2023-04-18T10:10:11.941Z,17.00
2023-04-18T10:12:40.882Z,16.60
2023-04-18T10:15:10.239Z,16.40
2023-04-18T10:18:03.629Z,16.10
2023-04-18T10:20:34.963Z,15.90
2023-04-18T10:23:36.771Z,15.90
2023-04-18T10:26:04.900Z,16.00
2023-04-18T10:28:51.393Z,16.10
2023-04-18T10:31:19.320Z,16.30
2023-04-18T10:34:00.723Z,16.80
2023-04-18T10:36:31.634Z,17.00
2023-04-18T10:39:01.880Z,16.90
2023-04-18T10:41:30.899Z,16.90
2023-04-18T10:44:21.107Z,16.90
2023-04-18T10:47:22.228Z,16.80
2023-04-18T10:50:05.959Z,16.70
2023-04-18T10:52:33.950Z,16.60
2023-04-18T10:55:15.928Z,16.50
2023-04-18T10:57:44.521Z,16.60
2023-04-18T11:00:14.523Z,16.60
2023-04-18T11:02:49.701Z,16.60
2023-04-18T11:05:24.588Z,16.60
2023-04-18T11:07:51.720Z,16.60
2023-04-18T11:10:21.820Z,16.60
2023-04-18T11:12:49.125Z,16.60
2023-04-18T11:15:19.121Z,16.70
2023-04-18T11:17:46.056Z,16.90
2023-04-18T11:20:14.753Z,17.00
2023-04-18T11:22:48.805Z,17.10
2023-04-18T11:25:17.120Z,17.30
2023-04-18T11:27:45.525Z,17.50
2023-04-18T11:30:14.579Z,17.80
2023-04-18T11:32:42.180Z,18.00
2023-04-18T11:35:11.310Z,18.10
2023-04-18T11:37:39.905Z,18.20
2023-04-18T11:40:09.875Z,18.30
2023-04-18T11:42:40.081Z,18.30
2023-04-18T11:45:10.809Z,18.30
2023-04-18T11:47:37.841Z,18.30
2023-04-18T11:50:07.915Z,18.30
2023-04-18T11:52:36.645Z,18.50
2023-04-18T11:55:16.796Z,18.70
2023-04-18T11:57:50.930Z,18.90
2023-04-18T12:00:19.487Z,19.00
2023-04-18T12:02:49.547Z,19.20
2023-04-18T12:05:25.779Z,19.30
2023-04-18T12:07:52.840Z,19.50
2023-04-18T12:10:28.930Z,19.60
2023-04-18T12:12:58.446Z,19.70
2023-04-18T12:15:28.335Z,19.90
2023-04-18T12:17:59.756Z,20.10
2023-04-18T12:20:34.758Z,20.20
2023-04-18T12:23:02.121Z,20.40
2023-04-18T12:25:30.566Z,20.50
2023-04-18T12:27:59.861Z,20.50
2023-04-18T12:30:29.372Z,20.40
2023-04-18T12:32:58.805Z,20.40
2023-04-18T12:35:26.889Z,20.50
2023-04-18T12:37:57.011Z,20.80
2023-04-18T12:40:25.300Z,21.00
2023-04-18T12:42:55.428Z,21.20
2023-04-18T12:45:23.794Z,21.50
2023-04-18T12:47:52.888Z,21.70
2023-04-18T12:50:21.868Z,21.70
2023-04-18T12:52:51.237Z,21.90
2023-04-18T12:55:18.430Z,21.80
2023-04-18T12:57:45.654Z,21.70
2023-04-18T13:00:14.669Z,21.50
2023-04-18T13:02:44.778Z,21.20
2023-04-18T13:05:14.685Z,21.10
2023-04-18T13:07:42.690Z,21.20
2023-04-18T13:10:11.943Z,21.50
2023-04-18T13:12:40.449Z,21.70
2023-04-18T13:15:08.834Z,21.80
2023-04-18T13:17:38.469Z,22.30
2023-04-18T13:20:07.713Z,22.60
2023-04-18T13:22:34.567Z,22.90
2023-04-18T13:25:01.618Z,22.50
2023-04-18T13:27:30.446Z,22.20
2023-04-18T13:29:57.708Z,22.00
2023-04-18T13:32:24.953Z,22.10
2023-04-18T13:34:53.670Z,22.20
2023-04-18T13:37:20.490Z,22.10
2023-04-18T13:39:47.595Z,21.90
2023-04-18T13:42:16.280Z,21.70
2023-04-18T13:44:43.410Z,21.60
2023-04-18T13:47:10.410Z,21.70
2023-04-18T13:49:37.835Z,22.20
2023-04-18T13:52:06.570Z,22.00
2023-04-18T13:54:33.526Z,21.60
2023-04-18T13:57:01.848Z,21.20
2023-04-18T13:59:31.323Z,20.90
2023-04-18T14:01:58.826Z,20.70
2023-04-18T14:04:26.347Z,20.60
2023-04-18T14:06:56.232Z,20.60
2023-04-18T14:09:26.603Z,20.60
2023-04-18T14:11:53.599Z,20.50
2023-04-18T14:14:20.809Z,20.50
2023-04-18T14:16:47.871Z,20.60
2023-04-18T14:19:14.932Z,21.60
2023-04-18T14:21:41.913Z,22.70
2023-04-18T14:24:09.340Z,23.50
2023-04-18T14:26:37.695Z,23.70
2023-04-18T14:29:30.548Z,23.80
2023-04-18T14:31:57.536Z,23.60
2023-04-18T14:34:24.603Z,23.00
2023-04-18T14:36:51.557Z,22.80
2023-04-18T14:39:18.605Z,22.20
2023-04-18T14:41:47.393Z,21.80
2023-04-18T14:44:14.280Z,21.80
2023-04-18T14:46:42.381Z,21.60
2023-04-18T14:49:09.342Z,21.60
2023-04-18T14:51:36.198Z,21.60
2023-04-18T14:54:03.662Z,21.50
2023-04-18T14:56:30.704Z,21.40
2023-04-18T14:58:59.158Z,21.60
2023-04-18T15:01:26.191Z,21.50
2023-04-18T15:03:53.446Z,21.10
2023-04-18T15:06:21.026Z,20.70
2023-04-18T15:08:48.046Z,20.20
2023-04-18T15:11:16.918Z,19.70
2023-04-18T15:13:44.089Z,19.40
2023-04-18T15:16:13.054Z,20.10
2023-04-18T15:18:40.179Z,20.60
2023-04-18T15:21:07.302Z,21.00
2023-04-18T15:23:34.154Z,21.30
2023-04-18T15:26:01.558Z,21.50
2023-04-18T15:28:31.816Z,21.50
2023-04-18T15:30:58.949Z,21.50
2023-04-18T15:33:27.271Z,21.50
2023-04-18T15:35:55.548Z,21.40
2023-04-18T15:38:22.606Z,21.30
2023-04-18T15:40:55.583Z,21.20
2023-04-18T15:43:22.455Z,21.00
2023-04-18T15:45:49.388Z,20.80
2023-04-18T15:48:16.355Z,20.70
2023-04-18T15:50:50.652Z,20.60
2023-04-18T15:53:17.878Z,20.50
2023-04-18T15:55:45.020Z,20.40
2023-04-18T15:58:12.079Z,20.20
2023-04-18T16:00:39.026Z,20.00
2023-04-18T16:03:07.153Z,20.00
2023-04-18T16:05:34.296Z,20.00
2023-04-18T16:08:02.955Z,19.90
2023-04-18T16:10:30.800Z,19.80
2023-04-18T16:12:57.742Z,19.70
2023-04-18T16:15:25.234Z,19.60
2023-04-18T16:17:52.241Z,19.40
2023-04-18T16:20:19.540Z,19.30
2023-04-18T16:22:47.015Z,19.20
2023-04-18T16:25:18.046Z,19.00
2023-04-18T16:27:45.567Z,18.90
2023-04-18T16:30:13.781Z,18.70
2023-04-18T16:32:40.670Z,18.60
2023-04-18T16:35:09.271Z,18.50
2023-04-18T16:37:36.726Z,18.40
2023-04-18T16:40:04.623Z,18.30
2023-04-18T16:42:33.396Z,18.20
2023-04-18T16:45:01.542Z,18.00
2023-04-18T16:47:28.914Z,17.90
2023-04-18T16:49:56.277Z,17.70
2023-04-18T16:52:23.222Z,17.50
2023-04-18T16:54:52.500Z,17.30
2023-04-18T16:57:19.760Z,17.10
2023-04-18T16:59:48.113Z,16.90
2023-04-18T17:02:15.181Z,16.80
2023-04-18T17:05:08.000Z,16.70
2023-04-18T17:07:35.036Z,16.50
2023-04-18T17:10:02.243Z,16.30
2023-04-18T17:12:29.577Z,16.20
2023-04-18T17:14:57.840Z,16.00
2023-04-18T17:17:24.909Z,15.70
2023-04-18T17:19:51.804Z,15.50
2023-04-18T17:22:18.774Z,15.40
2023-04-18T17:24:45.739Z,15.20
2023-04-18T17:27:12.728Z,15.10
2023-04-18T17:29:39.613Z,15.00
2023-04-18T17:32:08.111Z,14.90
2023-04-18T17:34:35.192Z,14.80
2023-04-18T17:39:52.975Z,14.50
2023-04-18T17:42:20.140Z,14.40
2023-04-18T17:44:46.935Z,14.30
2023-04-18T17:47:15.192Z,14.10
2023-04-18T17:49:42.246Z,13.90
2023-04-18T17:52:09.304Z,13.80
2023-04-18T17:54:36.170Z,13.70
2023-04-18T17:57:03.352Z,13.50
2023-04-18T17:59:30.484Z,13.40
2023-04-18T18:01:57.614Z,13.30
2023-04-18T18:04:26.986Z,13.20
2023-04-18T18:06:54.792Z,13.10
2023-04-18T18:09:21.658Z,13.00
2023-04-18T18:11:48.757Z,12.90
2023-04-18T18:14:16.008Z,12.70
2023-04-18T18:16:43.167Z,12.60
2023-04-18T18:19:10.193Z,12.50
2023-04-18T18:21:38.572Z,12.40
2023-04-18T18:24:06.090Z,12.30
2023-04-18T18:26:34.051Z,12.20
2023-04-18T18:29:01.033Z,12.20
2023-04-18T18:31:28.130Z,12.10
2023-04-18T18:33:55.150Z,12.00
2023-04-18T18:36:22.248Z,11.90
2023-04-18T18:38:52.532Z,11.90
2023-04-18T18:41:20.901Z,11.80
2023-04-18T18:43:48.119Z,11.80
2023-04-18T18:46:15.573Z,11.70
2023-04-18T18:48:42.531Z,11.60
2023-04-18T18:51:09.642Z,11.50
2023-04-18T18:53:38.379Z,11.50
2023-04-18T18:56:08.414Z,11.40
2023-04-18T18:58:35.323Z,11.40
2023-04-18T19:01:02.348Z,11.40
2023-04-18T19:03:29.753Z,11.40
2023-04-18T19:05:56.883Z,11.30
2023-04-18T19:08:23.922Z,11.30
2023-04-18T19:10:51.025Z,11.30
2023-04-18T19:13:22.233Z,11.30
2023-04-18T19:15:49.519Z,11.20
2023-04-18T19:18:16.417Z,11.20
2023-04-18T19:20:43.314Z,11.10
2023-04-18T19:23:10.270Z,11.10
2023-04-18T19:25:37.343Z,11.00
2023-04-18T19:28:04.677Z,11.00
2023-04-18T19:30:33.375Z,10.90
2023-04-18T19:33:00.425Z,10.90
2023-04-18T19:35:27.665Z,10.80
2023-04-18T19:37:54.528Z,10.80
2023-04-18T19:40:21.801Z,10.70
2023-04-18T19:42:49.061Z,10.70
2023-04-18T19:45:16.317Z,10.70
2023-04-18T19:47:44.851Z,10.60
2023-04-18T19:50:11.817Z,10.50
2023-04-18T19:52:38.876Z,10.50
2023-04-18T19:55:07.435Z,10.50
2023-04-18T19:57:37.370Z,10.40
2023-04-18T20:00:05.644Z,10.40
2023-04-18T20:02:41.474Z,10.30
2023-04-18T20:05:10.412Z,10.30
2023-04-18T20:07:37.537Z,10.30
2023-04-18T20:10:06.227Z,10.20
2023-04-18T20:12:33.177Z,10.20
2023-04-18T20:15:00.327Z,10.20
2023-04-18T20:17:27.788Z,10.10
2023-04-18T20:19:54.809Z,10.10
2023-04-18T20:22:23.593Z,10.00
2023-04-18T20:24:50.476Z,10.00
2023-04-18T20:27:20.460Z,9.90
2023-04-18T20:29:47.380Z,9.90
2023-04-18T20:32:14.364Z,9.80
2023-04-18T20:34:41.163Z,9.80
2023-04-18T20:37:08.148Z,9.70
2023-04-18T20:39:36.428Z,9.70
2023-04-18T20:42:03.365Z,9.60
2023-04-18T20:44:30.788Z,9.60
2023-04-18T20:46:57.654Z,9.50
2023-04-18T20:49:24.569Z,9.40
2023-04-18T20:51:51.623Z,9.30
2023-04-18T20:54:19.093Z,9.30
2023-04-18T20:56:47.302Z,9.20
2023-04-18T20:59:14.099Z,9.20
2023-04-18T21:01:41.363Z,9.10
2023-04-18T21:04:08.677Z,9.10
2023-04-18T21:06:35.706Z,9.10
2023-04-18T21:09:02.879Z,9.10
2023-04-18T21:11:30.006Z,9.00
2023-04-18T21:13:58.392Z,9.00
2023-04-18T21:16:25.332Z,8.90
2023-04-18T21:18:53.509Z,8.90
2023-04-18T21:21:20.767Z,8.80
2023-04-18T21:23:47.773Z,8.80
2023-04-18T21:26:14.778Z,8.80
2023-04-18T21:28:59.052Z,8.80
2023-04-18T21:31:28.710Z,8.70
2023-04-18T21:33:57.321Z,8.70
2023-04-18T21:36:26.836Z,8.60
2023-04-18T21:38:55.552Z,8.60
2023-04-18T21:41:24.166Z,8.50
2023-04-18T21:43:52.400Z,8.50
2023-04-18T21:46:22.862Z,8.50
2023-04-18T21:48:50.282Z,8.40
2023-04-18T21:51:17.591Z,8.40
2023-04-18T21:53:45.066Z,8.40
2023-04-18T21:56:12.298Z,8.40
2023-04-18T21:58:39.358Z,8.30
2023-04-18T22:01:06.345Z,8.30
2023-04-18T22:03:35.038Z,8.30
2023-04-18T22:06:02.359Z,8.30
2023-04-18T22:08:29.411Z,8.30
2023-04-18T22:10:58.445Z,8.30
2023-04-18T22:13:27.782Z,8.30
2023-04-18T22:15:54.718Z,8.20
2023-04-18T22:18:21.703Z,8.20
2023-04-18T22:20:50.171Z,8.20
2023-04-18T22:23:17.520Z,8.10
2023-04-18T22:25:44.686Z,8.10
2023-04-18T22:28:11.553Z,8.10
2023-04-18T22:30:38.923Z,8.10
2023-04-18T22:33:06.227Z,8.10
2023-04-18T22:35:33.371Z,8.10
2023-04-18T22:38:01.875Z,8.10
2023-04-18T22:40:29.196Z,8.10
2023-04-18T22:42:56.718Z,8.00
2023-04-18T22:45:23.848Z,8.00
2023-04-18T22:47:50.989Z,8.10
2023-04-18T22:50:18.364Z,8.00
2023-04-18T22:52:45.341Z,8.00
2023-04-18T22:55:13.908Z,8.00
2023-04-18T22:57:41.365Z,7.90
2023-04-18T23:00:10.164Z,7.90
2023-04-18T23:02:37.569Z,7.90
2023-04-18T23:05:05.673Z,7.90
2023-04-18T23:07:33.081Z,7.80
2023-04-18T23:10:00.255Z,7.80
2023-04-18T23:12:28.697Z,7.80
2023-04-18T23:14:55.784Z,7.80
2023-04-18T23:17:22.699Z,7.80
2023-04-18T23:19:49.803Z,7.80
2023-04-18T23:22:17.025Z,7.70
2023-04-18T23:24:43.886Z,7.70
2023-04-18T23:27:11.059Z,7.70
2023-04-18T23:29:39.849Z,7.70
2023-04-18T23:32:06.715Z,7.60
2023-04-18T23:34:33.879Z,7.60
2023-04-18T23:37:00.925Z,7.60
2023-04-18T23:39:28.065Z,7.60
2023-04-18T23:41:55.549Z,7.60
2023-04-18T23:44:22.741Z,7.60
2023-04-18T23:46:51.077Z,7.60
2023-04-18T23:49:18.109Z,7.50
2023-04-18T23:51:45.108Z,7.50
2023-04-18T23:54:12.252Z,7.50
2023-04-18T23:56:39.172Z,7.50
2023-04-18T23:59:06.615Z,7.50
